KWJF

Details ICAO KWJF (WJF)
Name General Wm J Fox Airfield
Region United States
Timezone America/Los_Angeles (UTC-7.0)
Plans Departing 52
Arriving 25
Stats Elevation 2,351 ft / 717 m (AMSL)
Location 34.741000° -118.219000°
Runways 1
Magnetic Variation 12.049° E
Sunrise 2018-10-20 14:03:57 UTC / 2018-10-20 07:03:57 Local
Sunset 2018-10-21 01:13:36 UTC / 2018-10-20 18:13:36 Local
Advertisement - Login to hide

Runways

ID Width Length Bearing (true/mag) Surface Threshold Overrun Markings Lighting
06 151 ft / 46 m 7,189 ft / 2,191 m 71.98° / 59.93° ASPHALT 0 ft / 0 m 200 ft / 61 m APP EDGE THRESHOLD REIL-OMNI
24 151 ft / 46 m 7,189 ft / 2,191 m 252.00° / 239.95° ASPHALT 0 ft / 0 m 200 ft / 61 m APP EDGE THRESHOLD REIL-OMNI

Map

Weather


0- 5 10 15 20 25 30 35+ Temperature / °C

Clouds and Precipitation
Forecast for 2018-10-20 18:00 UTC. Updated 6 hours ago

Ground ~20,000 ft ~40,000 ft Winds

METAR

KWJF 202056Z 07009KT 10SM CLR 27/M04 A3003 RMK AO2 SLP161 T02671044 58028

TAF

KWJF 201735Z 2018/2118 VRB03KT P6SM SKC FM201900 08009KT P6SM SKC FM210300 35005KT P6SM SKC FM210900 VRB03KT P6SM SCT250

Frequencies

Unicom 122.95 MHz UNICOM
Ground 121.70 MHz
Tower 120.30 MHz
Approach 126.10 MHz JOSHUA APP/DEP
Recorded 126.30 MHz ATIS
Recorded 133.87 MHz AWOS
Unicom 120.30 MHz CTAF
Warning: Do not use this data for real-world aviation or navigation. No guarantee of current accuracy is given.